createdAt,value
2023-08-08T00:00:04.311Z,98176.34
2023-08-08T00:03:10.162Z,98169.25
2023-08-08T00:06:14.194Z,98171.31
2023-08-08T00:09:17.904Z,98177.78
2023-08-08T00:12:21.935Z,98181.81
2023-08-08T00:15:27.347Z,98194.22
2023-08-08T00:18:31.221Z,98190.38
2023-08-08T00:21:35.075Z,98187.91
2023-08-08T00:24:38.929Z,98196.84
2023-08-08T00:27:45.106Z,98188.47
2023-08-08T00:30:50.519Z,98190.94
2023-08-08T00:33:54.233Z,98192.25
2023-08-08T00:36:58.105Z,98185.19
2023-08-08T00:40:02.239Z,98190.91
2023-08-08T00:43:06.668Z,98185.97
2023-08-08T00:46:12.073Z,98189.69
2023-08-08T00:49:16.559Z,98197.44
2023-08-08T00:52:20.089Z,98194.91
2023-08-08T00:55:24.916Z,98194.84
2023-08-08T00:58:28.813Z,98199.09
2023-08-08T01:01:35.202Z,98202.31
2023-08-08T01:04:41.122Z,98206.66
2023-08-08T01:07:54.620Z,98200.94
2023-08-08T01:10:58.697Z,98212.03
2023-08-08T01:14:04.950Z,98199.56
2023-08-08T01:17:10.158Z,98198.97
2023-08-08T01:20:18.090Z,98191.91
2023-08-08T01:23:30.879Z,98197.34
2023-08-08T01:26:37.150Z,98198.91
2023-08-08T01:29:41.683Z,98211.81
2023-08-08T01:32:45.603Z,98196.25
2023-08-08T01:35:55.965Z,98188.53
2023-08-08T01:39:06.416Z,98200.91
2023-08-08T01:42:13.118Z,98205.44
2023-08-08T01:45:18.110Z,98211.09
2023-08-08T01:48:21.758Z,98205.13
2023-08-08T01:51:27.440Z,98200.44
2023-08-08T01:54:31.362Z,98202.50
2023-08-08T01:57:36.718Z,98198.88
2023-08-08T02:00:42.150Z,98205.63
2023-08-08T02:03:46.367Z,98200.13
2023-08-08T02:06:50.145Z,98196.28
2023-08-08T02:09:54.025Z,98201.69
2023-08-08T02:12:59.233Z,98206.59
2023-08-08T02:16:03.495Z,98209.31
2023-08-08T02:19:07.917Z,98210.38
2023-08-08T02:22:12.085Z,98213.06
2023-08-08T02:25:16.228Z,98221.19
2023-08-08T02:28:21.598Z,98221.66
2023-08-08T02:31:25.943Z,98224.31
2023-08-08T02:34:30.266Z,98219.03
2023-08-08T02:37:33.930Z,98215.94
2023-08-08T02:40:39.864Z,98228.22
2023-08-08T02:43:46.578Z,98232.44
2023-08-08T02:46:50.945Z,98233.75
2023-08-08T02:49:54.643Z,98232.81
2023-08-08T02:52:58.841Z,98229.56
2023-08-08T02:56:07.367Z,98227.34
2023-08-08T02:59:18.010Z,98245.91
2023-08-08T03:02:21.808Z,98239.91
2023-08-08T03:05:26.873Z,98248.25
2023-08-08T03:08:31.206Z,98249.06
2023-08-08T03:11:38.475Z,98258.59
2023-08-08T03:14:45.537Z,98258.13
2023-08-08T03:17:50.486Z,98267.06
2023-08-08T03:20:55.123Z,98266.81
2023-08-08T03:24:00.633Z,98271.06
2023-08-08T03:27:04.413Z,98276.31
2023-08-08T03:30:11.751Z,98282.81
2023-08-08T03:33:18.818Z,98281.16
2023-08-08T03:36:23.220Z,98284.94
2023-08-08T03:39:27.853Z,98278.13
2023-08-08T03:42:31.871Z,98293.03
2023-08-08T03:45:37.177Z,98301.59
2023-08-08T03:48:41.678Z,98295.16
2023-08-08T03:51:45.406Z,98311.94
2023-08-08T03:54:49.481Z,98321.91
2023-08-08T03:57:53.124Z,98317.34
2023-08-08T04:00:58.671Z,98333.56
2023-08-08T04:04:02.273Z,98319.22
2023-08-08T04:07:06.346Z,98325.78
2023-08-08T04:10:10.957Z,98335.75
2023-08-08T04:13:14.987Z,98339.28
2023-08-08T04:16:20.612Z,98336.34
2023-08-08T04:19:24.687Z,98345.88
2023-08-08T04:22:28.266Z,98350.22
2023-08-08T04:25:32.689Z,98345.66
2023-08-08T04:28:36.280Z,98337.53
2023-08-08T04:31:41.579Z,98347.88
2023-08-08T04:34:45.360Z,98359.84
2023-08-08T04:37:49.341Z,98368.53
2023-08-08T04:40:52.996Z,98369.47
2023-08-08T04:43:56.918Z,98372.53
2023-08-08T04:47:02.040Z,98379.88
2023-08-08T04:50:07.317Z,98385.19
2023-08-08T04:53:10.821Z,98393.94
2023-08-08T04:56:14.706Z,98399.06
2023-08-08T04:59:18.269Z,98406.09
2023-08-08T05:02:23.517Z,98418.03
2023-08-08T05:05:27.133Z,98425.41
2023-08-08T05:08:31.028Z,98422.72
2023-08-08T05:11:34.544Z,98419.78
2023-08-08T05:14:38.558Z,98428.47
2023-08-08T05:17:43.591Z,98432.91
2023-08-08T05:20:47.589Z,98436.84
2023-08-08T05:23:51.297Z,98434.88
2023-08-08T05:26:55.476Z,98441.63
2023-08-08T05:29:59.113Z,98445.16
2023-08-08T05:33:04.683Z,98443.19
2023-08-08T05:36:08.638Z,98436.44
2023-08-08T05:39:12.532Z,98448.91
2023-08-08T05:42:17.013Z,98450.97
2023-08-08T05:45:21.113Z,98448.75
2023-08-08T05:48:26.330Z,98438.06
2023-08-08T05:51:30.447Z,98442.31
2023-08-08T05:54:34.132Z,98439.41
2023-08-08T05:57:38.842Z,98447.63
2023-08-08T06:00:43.856Z,98448.31
2023-08-08T06:03:49.258Z,98444.88
2023-08-08T06:06:52.986Z,98454.69
2023-08-08T06:09:56.922Z,98450.53
2023-08-08T06:13:00.601Z,98443.63
2023-08-08T06:16:08.144Z,98444.81
2023-08-08T06:19:15.295Z,98444.44
2023-08-08T06:22:20.877Z,98446.34
2023-08-08T06:25:25.698Z,98438.53
2023-08-08T06:28:31.360Z,98464.31
2023-08-08T06:31:35.084Z,98433.44
2023-08-08T06:34:40.499Z,98436.19
2023-08-08T06:37:44.877Z,98437.69
2023-08-08T06:40:48.863Z,98448.66
2023-08-08T06:43:52.566Z,98439.31
2023-08-08T06:46:56.966Z,98438.19
2023-08-08T06:50:02.479Z,98444.47
2023-08-08T06:53:07.220Z,98429.06
2023-08-08T06:56:10.830Z,98427.44
2023-08-08T06:59:14.709Z,98425.38
2023-08-08T07:02:18.873Z,98440.19
2023-08-08T07:05:24.765Z,98452.00
2023-08-08T07:08:28.559Z,98442.84
2023-08-08T07:11:32.675Z,98442.91
2023-08-08T07:14:36.399Z,98425.25
2023-08-08T07:17:40.692Z,98440.78
2023-08-08T07:20:46.036Z,98435.66
2023-08-08T07:23:50.382Z,98435.09
2023-08-08T07:26:54.815Z,98428.31
2023-08-08T07:29:58.878Z,98434.88
2023-08-08T07:33:02.697Z,98429.41
2023-08-08T07:36:08.395Z,98424.72
2023-08-08T07:39:12.587Z,98424.69
2023-08-08T07:42:16.713Z,98434.19
2023-08-08T07:45:20.831Z,98432.03
2023-08-08T07:48:24.693Z,98426.06
2023-08-08T07:51:29.717Z,98427.66
2023-08-08T07:54:33.922Z,98427.34
2023-08-08T07:57:37.555Z,98431.09
2023-08-08T08:00:42.232Z,98418.53
2023-08-08T08:03:46.314Z,98437.03
2023-08-08T08:06:51.610Z,98428.66
2023-08-08T08:09:55.307Z,98421.97
2023-08-08T08:12:59.961Z,98424.19
2023-08-08T08:16:03.586Z,98426.69
2023-08-08T08:19:07.718Z,98427.28
2023-08-08T08:22:12.859Z,98417.53
2023-08-08T08:25:17.028Z,98413.69
2023-08-08T08:28:21.150Z,98418.31
2023-08-08T08:31:24.980Z,98412.28
2023-08-08T08:34:28.738Z,98413.41
2023-08-08T08:37:34.317Z,98420.88
2023-08-08T08:40:41.682Z,98427.44
2023-08-08T08:43:45.606Z,98413.25
2023-08-08T08:46:50.650Z,98408.00
2023-08-08T08:49:55.188Z,98418.53
2023-08-08T08:53:02.515Z,98412.50
2023-08-08T08:56:06.883Z,98409.25
2023-08-08T08:59:10.609Z,98405.75
2023-08-08T09:02:16.622Z,98401.69
2023-08-08T09:05:23.902Z,98413.69
2023-08-08T09:08:29.515Z,98410.13
2023-08-08T09:11:34.419Z,98409.34
2023-08-08T09:14:43.451Z,98401.28
2023-08-08T09:17:49.724Z,98392.56
2023-08-08T09:20:54.158Z,98393.97
2023-08-08T09:23:59.392Z,98412.22
2023-08-08T09:27:03.457Z,98395.88
2023-08-08T09:30:10.056Z,98410.06
2023-08-08T09:33:14.213Z,98387.69
2023-08-08T09:36:17.993Z,98387.13
2023-08-08T09:39:23.716Z,98394.44
2023-08-08T09:42:30.667Z,98393.84
2023-08-08T09:45:43.104Z,98402.06
2023-08-08T09:48:47.702Z,98410.25
2023-08-08T09:51:53.052Z,98393.66
2023-08-08T09:54:58.483Z,98387.59
2023-08-08T09:58:04.893Z,98400.06
2023-08-08T10:01:10.236Z,98404.16
2023-08-08T10:04:14.900Z,98384.44
2023-08-08T10:07:18.746Z,98392.78
2023-08-08T10:10:24.467Z,98373.63
2023-08-08T10:13:29.385Z,98389.81
2023-08-08T10:16:38.445Z,98377.63
2023-08-08T10:19:42.316Z,98373.66
2023-08-08T10:22:48.514Z,98372.44
2023-08-08T10:25:55.044Z,98381.19
2023-08-08T10:29:01.012Z,98377.19
2023-08-08T10:32:08.232Z,98383.03
2023-08-08T10:35:13.981Z,98400.53
2023-08-08T10:38:17.650Z,98392.75
2023-08-08T10:41:24.496Z,98377.97
2023-08-08T10:44:28.469Z,98406.84
2023-08-08T10:47:36.583Z,98416.94
2023-08-08T10:50:43.189Z,98401.56
2023-08-08T10:53:48.497Z,98398.66
2023-08-08T10:56:55.780Z,98411.69
2023-08-08T11:00:19.496Z,98411.50
2023-08-08T11:03:25.236Z,98392.50
2023-08-08T11:06:29.766Z,98405.81
2023-08-08T11:09:33.612Z,98414.81
2023-08-08T11:12:39.169Z,98399.69
2023-08-08T11:15:44.301Z,98397.06
2023-08-08T11:18:48.264Z,98392.75
2023-08-08T11:21:52.336Z,98382.34
2023-08-08T11:24:58.639Z,98405.50
2023-08-08T11:28:03.817Z,98398.63
2023-08-08T11:31:09.389Z,98401.03
2023-08-08T11:34:14.018Z,98409.00
2023-08-08T11:37:18.106Z,98411.06
2023-08-08T11:40:23.235Z,98416.00
2023-08-08T11:43:28.773Z,98416.72
2023-08-08T11:46:32.767Z,98408.16
2023-08-08T11:49:43.238Z,98412.16
2023-08-08T11:52:48.964Z,98405.44
2023-08-08T11:55:53.373Z,98415.97
2023-08-08T11:58:58.326Z,98421.13
2023-08-08T12:02:02.841Z,98418.00
2023-08-08T12:05:08.150Z,98424.63
2023-08-08T12:08:12.109Z,98412.69
2023-08-08T12:11:16.797Z,98417.63
2023-08-08T12:14:22.418Z,98408.16
2023-08-08T12:17:26.059Z,98405.97
2023-08-08T12:20:32.199Z,98408.22
2023-08-08T12:23:36.628Z,98414.59
2023-08-08T12:26:40.432Z,98407.22
2023-08-08T12:29:45.685Z,98411.66
2023-08-08T12:32:49.876Z,98413.81
2023-08-08T12:35:54.222Z,98397.38
2023-08-08T12:38:58.045Z,98412.19
2023-08-08T12:42:01.821Z,98411.66
2023-08-08T12:45:08.882Z,98403.84
2023-08-08T12:48:12.695Z,98405.34
2023-08-08T12:51:18.071Z,98398.84
2023-08-08T12:54:21.662Z,98421.56
2023-08-08T12:57:26.223Z,98416.34
2023-08-08T13:00:31.194Z,98407.88
2023-08-08T13:03:36.258Z,98425.38
2023-08-08T13:06:40.113Z,98424.28
2023-08-08T13:09:44.175Z,98423.63
2023-08-08T13:12:47.827Z,98416.69
2023-08-08T13:15:53.160Z,98470.22
2023-08-08T13:18:57.007Z,98417.91
2023-08-08T13:22:01.047Z,98443.19
2023-08-08T13:25:06.602Z,98433.41
2023-08-08T13:28:11.072Z,98428.06
2023-08-08T13:31:16.980Z,98431.03
2023-08-08T13:34:20.806Z,98441.38
2023-08-08T13:37:24.636Z,98429.25
2023-08-08T13:40:28.774Z,98420.06
2023-08-08T13:43:33.137Z,98431.22
2023-08-08T13:46:38.627Z,98442.16
2023-08-08T13:49:43.091Z,98431.59
2023-08-08T13:52:46.923Z,98430.09
2023-08-08T13:55:50.510Z,98423.53
2023-08-08T13:58:54.566Z,98427.44
2023-08-08T14:02:00.002Z,98434.78
2023-08-08T14:05:06.397Z,98413.53
2023-08-08T14:08:11.074Z,98419.63
2023-08-08T14:11:15.089Z,98426.59
2023-08-08T14:14:18.672Z,98427.78
2023-08-08T14:17:24.403Z,98439.50
2023-08-08T14:20:29.033Z,98445.88
2023-08-08T14:23:33.211Z,98423.59
2023-08-08T14:26:36.798Z,98439.50
2023-08-08T14:29:40.851Z,98446.34
2023-08-08T14:32:45.939Z,98434.19
2023-08-08T14:35:49.954Z,98435.03
2023-08-08T14:38:53.420Z,98433.41
2023-08-08T14:41:57.720Z,98427.41
2023-08-08T14:45:01.419Z,98425.47
2023-08-08T14:48:07.812Z,98432.28
2023-08-08T14:51:13.388Z,98458.59
2023-08-08T14:54:17.304Z,98436.75
2023-08-08T14:57:21.075Z,98437.03
2023-08-08T15:00:24.976Z,98446.59
2023-08-08T15:03:30.954Z,98434.22
2023-08-08T15:06:35.108Z,98438.19
2023-08-08T15:09:39.618Z,98424.13
2023-08-08T15:12:43.673Z,98426.03
2023-08-08T15:15:47.416Z,98433.72
2023-08-08T15:18:52.731Z,98419.78
2023-08-08T15:21:57.101Z,98428.25
2023-08-08T15:25:00.963Z,98408.44
2023-08-08T15:28:05.619Z,98423.97
2023-08-08T15:31:09.642Z,98410.59
2023-08-08T15:34:14.632Z,98403.03
2023-08-08T15:37:19.160Z,98398.75
2023-08-08T15:40:23.197Z,98399.47
2023-08-08T15:43:31.414Z,98403.22
2023-08-08T15:46:35.719Z,98398.66
2023-08-08T15:49:41.171Z,98400.25
2023-08-08T15:52:44.870Z,98403.06
2023-08-08T15:55:49.809Z,98391.06
2023-08-08T15:58:53.574Z,98390.59
2023-08-08T16:01:57.392Z,98402.50
2023-08-08T16:05:02.509Z,98394.34
2023-08-08T16:08:08.096Z,98381.09
2023-08-08T16:11:11.971Z,98385.22
2023-08-08T16:14:16.318Z,98385.44
2023-08-08T16:17:21.737Z,98379.59
2023-08-08T16:20:27.136Z,98387.25
2023-08-08T16:23:30.840Z,98376.88
2023-08-08T16:26:35.036Z,98384.44
2023-08-08T16:29:38.615Z,98392.97
2023-08-08T16:32:42.662Z,98377.41
2023-08-08T16:35:47.726Z,98384.94
2023-08-08T16:38:53.589Z,98380.03
2023-08-08T16:42:01.118Z,98381.47
2023-08-08T16:45:06.381Z,98378.44
2023-08-08T16:48:09.957Z,98395.44
2023-08-08T16:51:15.573Z,98387.03
2023-08-08T16:54:19.197Z,98383.63
2023-08-08T16:57:23.225Z,98384.22
2023-08-08T17:00:28.330Z,98384.09
2023-08-08T17:03:32.308Z,98370.38
2023-08-08T17:06:37.400Z,98383.22
2023-08-08T17:09:41.358Z,98384.38
2023-08-08T17:12:45.247Z,98382.78
2023-08-08T17:15:49.072Z,98382.72
2023-08-08T17:18:53.715Z,98376.69
2023-08-08T17:21:59.607Z,98380.53
2023-08-08T17:25:03.576Z,98394.78
2023-08-08T17:28:07.775Z,98375.50
2023-08-08T17:31:11.481Z,98391.75
2023-08-08T17:34:15.495Z,98382.63
2023-08-08T17:37:20.408Z,98388.75
2023-08-08T17:40:24.236Z,98400.06
2023-08-08T17:43:28.018Z,98393.66
2023-08-08T17:46:32.244Z,98389.66
2023-08-08T17:49:35.905Z,98389.91
2023-08-08T17:52:41.371Z,98398.81
2023-08-08T17:55:45.011Z,98391.28
2023-08-08T17:58:49.884Z,98396.31
2023-08-08T18:01:53.591Z,98400.19
2023-08-08T18:04:57.626Z,98392.03
2023-08-08T18:08:02.587Z,98408.94
2023-08-08T18:11:06.531Z,98411.94
2023-08-08T18:14:11.273Z,98416.59
2023-08-08T18:17:15.347Z,98408.97
2023-08-08T18:20:18.899Z,98405.94
2023-08-08T18:23:24.289Z,98413.31
2023-08-08T18:26:27.965Z,98413.00
2023-08-08T18:29:31.956Z,98415.97
2023-08-08T18:32:35.839Z,98416.00
2023-08-08T18:35:39.859Z,98421.41
2023-08-08T18:38:44.987Z,98420.84
2023-08-08T18:41:49.068Z,98416.19
2023-08-08T18:44:52.926Z,98416.72
2023-08-08T18:47:56.936Z,98422.16
2023-08-08T18:51:01.109Z,98425.16
2023-08-08T18:54:09.480Z,98426.22
2023-08-08T18:57:13.538Z,98427.56
2023-08-08T19:00:17.588Z,98420.19
2023-08-08T19:03:21.256Z,98429.75
2023-08-08T19:06:25.049Z,98432.47
2023-08-08T19:09:30.025Z,98437.34
2023-08-08T19:12:33.902Z,98456.94
2023-08-08T19:15:38.005Z,98464.25
2023-08-08T19:18:41.878Z,98466.41
2023-08-08T19:21:45.498Z,98451.94
2023-08-08T19:24:50.991Z,98423.00
2023-08-08T19:27:54.628Z,98451.69
2023-08-08T19:30:58.635Z,98437.69
2023-08-08T19:34:06.800Z,98429.03
2023-08-08T19:37:11.662Z,98444.53
2023-08-08T19:40:16.569Z,98437.22
2023-08-08T19:43:21.097Z,98431.59
2023-08-08T19:46:24.998Z,98427.25
2023-08-08T19:49:28.985Z,98435.28
2023-08-08T19:52:32.636Z,98434.31
2023-08-08T19:55:38.292Z,98421.53
2023-08-08T19:58:42.604Z,98420.38
2023-08-08T20:01:46.542Z,98420.63
2023-08-08T20:04:50.258Z,98413.31
2023-08-08T20:07:56.206Z,98410.03
2023-08-08T20:11:01.768Z,98413.81
2023-08-08T20:14:05.948Z,98410.56
2023-08-08T20:17:09.675Z,98400.78
2023-08-08T20:20:13.664Z,98394.28
2023-08-08T20:23:17.138Z,98405.44
2023-08-08T20:26:22.511Z,98384.25
2023-08-08T20:29:26.316Z,98386.69
2023-08-08T20:32:32.034Z,98393.19
2023-08-08T20:35:35.537Z,98378.56
2023-08-08T20:38:39.318Z,98375.84
2023-08-08T20:41:44.305Z,98378.31
2023-08-08T20:44:48.202Z,98380.19
2023-08-08T20:47:51.753Z,98373.97
2023-08-08T20:50:55.668Z,98372.06
2023-08-08T20:53:59.217Z,98370.13
2023-08-08T20:57:04.995Z,98369.00
2023-08-08T21:00:11.070Z,98373.25
2023-08-08T21:03:14.921Z,98366.19
2023-08-08T21:06:18.559Z,98366.44
2023-08-08T21:09:22.417Z,98362.63
2023-08-08T21:12:27.419Z,98360.16
2023-08-08T21:15:31.494Z,98356.38
2023-08-08T21:18:35.217Z,98369.16
2023-08-08T21:21:39.106Z,98372.16
2023-08-08T21:24:42.708Z,98381.66
2023-08-08T21:27:47.948Z,98376.56
2023-08-08T21:30:51.509Z,98378.75
2023-08-08T21:33:55.470Z,98370.44
2023-08-08T21:36:59.073Z,98357.44
2023-08-08T21:40:03.098Z,98358.22
2023-08-08T21:43:08.432Z,98356.44
2023-08-08T21:46:12.576Z,98368.53
2023-08-08T21:49:16.343Z,98367.97
2023-08-08T21:52:20.129Z,98360.31
2023-08-08T21:55:24.009Z,98369.00
2023-08-08T21:58:29.288Z,98365.94
2023-08-08T22:01:32.952Z,98359.13
2023-08-08T22:04:38.050Z,98363.72
2023-08-08T22:07:42.652Z,98372.94
2023-08-08T22:10:46.743Z,98369.41
2023-08-08T22:13:51.779Z,98374.31
2023-08-08T22:16:55.917Z,98375.16
2023-08-08T22:19:59.525Z,98408.75
2023-08-08T22:23:09.954Z,98408.50
2023-08-08T22:26:21.695Z,98419.41
2023-08-08T22:29:27.831Z,98418.66
2023-08-08T22:32:31.542Z,98407.31
2023-08-08T22:35:35.724Z,98417.34
2023-08-08T22:38:39.584Z,98417.66
2023-08-08T22:41:44.712Z,98426.66
2023-08-08T22:44:50.818Z,98420.75
2023-08-08T22:47:54.653Z,98421.66
2023-08-08T22:50:58.293Z,98423.34
2023-08-08T22:54:02.519Z,98428.59
2023-08-08T22:57:06.122Z,98413.44
2023-08-08T23:00:13.627Z,98414.84
2023-08-08T23:03:17.648Z,98422.72
2023-08-08T23:06:21.550Z,98424.59
2023-08-08T23:09:25.451Z,98422.72
2023-08-08T23:12:29.285Z,98419.44
2023-08-08T23:15:34.185Z,98415.59
2023-08-08T23:18:38.732Z,98427.44
2023-08-08T23:21:42.399Z,98425.81
2023-08-08T23:24:46.507Z,98436.31
2023-08-08T23:27:50.220Z,98432.25
2023-08-08T23:30:55.442Z,98434.63
2023-08-08T23:33:59.478Z,98431.59
2023-08-08T23:37:03.954Z,98429.94
2023-08-08T23:40:10.268Z,98431.03
2023-08-08T23:43:14.162Z,98425.03
2023-08-08T23:46:19.182Z,98421.78
2023-08-08T23:49:23.084Z,98425.22
2023-08-08T23:52:26.690Z,98425.22
2023-08-08T23:55:31.249Z,98427.09
2023-08-08T23:58:35.717Z,98432.53
